createdAt,value
2023-03-17T00:00:33.533Z,56.36
2023-03-17T00:03:00.833Z,57.61
2023-03-17T00:05:35.602Z,56.08
2023-03-17T00:08:10.659Z,56.37
2023-03-17T00:10:37.715Z,57.69
2023-03-17T00:13:04.235Z,56.45
2023-03-17T00:15:30.785Z,57.07
2023-03-17T00:17:58.241Z,55.42
2023-03-17T00:20:29.800Z,55.42
2023-03-17T00:23:01.085Z,56.67
2023-03-17T00:25:30.185Z,55.94
2023-03-17T00:28:00.690Z,56.42
2023-03-17T00:30:29.137Z,56.37
2023-03-17T00:32:58.132Z,55.93
2023-03-17T00:35:28.510Z,56.47
2023-03-17T00:37:57.260Z,56.11
2023-03-17T00:40:31.139Z,56.21
2023-03-17T00:43:03.248Z,56.42
2023-03-17T00:45:29.893Z,57.46
2023-03-17T00:47:56.481Z,56.33
2023-03-17T00:50:27.809Z,55.69
2023-03-17T00:52:56.731Z,56.79
2023-03-17T00:55:25.148Z,56.50
2023-03-17T00:57:51.788Z,56.54
2023-03-17T01:00:26.422Z,55.83
2023-03-17T01:02:54.989Z,55.80
2023-03-17T01:05:24.394Z,56.20
2023-03-17T01:07:54.197Z,55.98
2023-03-17T01:10:26.426Z,55.50
2023-03-17T01:12:55.538Z,55.50
2023-03-17T01:15:23.031Z,55.45
2023-03-17T01:17:50.691Z,57.30
2023-03-17T01:20:23.732Z,56.67
2023-03-17T01:22:50.691Z,55.76
2023-03-17T01:25:19.020Z,56.06
2023-03-17T01:27:46.635Z,56.24
2023-03-17T01:30:22.454Z,56.27
2023-03-17T01:32:48.982Z,56.00
2023-03-17T01:35:16.290Z,55.31
2023-03-17T01:37:43.626Z,55.57
2023-03-17T01:40:15.559Z,54.63
2023-03-17T01:42:44.738Z,54.17
2023-03-17T01:45:49.142Z,54.32
2023-03-17T01:48:17.306Z,54.37
2023-03-17T01:50:46.712Z,53.74
2023-03-17T01:53:13.696Z,53.44
2023-03-17T01:55:41.734Z,53.23
2023-03-17T01:58:09.451Z,53.15
2023-03-17T02:00:36.558Z,54.09
2023-03-17T02:03:04.297Z,53.50
2023-03-17T02:05:32.946Z,53.82
2023-03-17T02:08:00.159Z,54.14
2023-03-17T02:10:28.888Z,53.31
2023-03-17T02:12:59.945Z,53.46
2023-03-17T02:15:43.894Z,53.78
2023-03-17T02:18:14.222Z,53.25
2023-03-17T02:20:40.676Z,53.44
2023-03-17T02:23:07.570Z,53.73
2023-03-17T02:25:36.227Z,54.31
2023-03-17T02:28:10.400Z,53.13
2023-03-17T02:30:37.579Z,53.56
2023-03-17T02:33:04.428Z,53.42
2023-03-17T02:35:31.491Z,52.19
2023-03-17T02:37:58.062Z,53.97
2023-03-17T02:40:24.676Z,53.78
2023-03-17T02:42:51.332Z,52.66
2023-03-17T02:45:18.044Z,51.46
2023-03-17T02:47:44.575Z,53.15
2023-03-17T02:50:18.871Z,52.54
2023-03-17T02:52:45.547Z,52.38
2023-03-17T02:55:12.131Z,51.77
2023-03-17T02:57:38.639Z,52.59
2023-03-17T03:00:05.964Z,52.69
2023-03-17T03:02:32.547Z,52.00
2023-03-17T03:04:59.121Z,51.89
2023-03-17T03:07:26.354Z,51.53
2023-03-17T03:09:52.877Z,53.03
2023-03-17T03:12:19.441Z,52.49
2023-03-17T03:14:46.069Z,51.95
2023-03-17T03:17:12.554Z,51.58
2023-03-17T03:19:39.446Z,52.21
2023-03-17T03:22:06.278Z,51.06
2023-03-17T03:24:32.853Z,51.96
2023-03-17T03:26:59.567Z,52.03
2023-03-17T03:29:26.127Z,52.21
2023-03-17T03:31:53.013Z,51.82
2023-03-17T03:34:19.580Z,52.39
2023-03-17T03:36:46.099Z,51.66
2023-03-17T03:39:14.456Z,52.24
2023-03-17T03:41:41.483Z,50.96
2023-03-17T03:44:08.085Z,51.52
2023-03-17T03:46:34.650Z,51.75
2023-03-17T03:49:01.341Z,52.36
2023-03-17T03:51:27.837Z,51.67
2023-03-17T03:53:54.412Z,52.14
2023-03-17T03:56:20.963Z,52.10
2023-03-17T03:58:47.525Z,51.46
2023-03-17T04:01:14.123Z,52.15
2023-03-17T04:03:41.211Z,51.21
2023-03-17T04:06:07.827Z,52.26
2023-03-17T04:08:34.476Z,51.68
2023-03-17T04:11:01.068Z,51.76
2023-03-17T04:13:27.675Z,51.18
2023-03-17T04:15:54.478Z,51.70
2023-03-17T04:18:21.110Z,51.97
2023-03-17T04:20:47.657Z,51.71
2023-03-17T04:23:14.183Z,51.96
2023-03-17T04:25:40.829Z,51.57
2023-03-17T04:28:09.021Z,51.99
2023-03-17T04:30:35.555Z,52.08
2023-03-17T04:33:02.426Z,51.92
2023-03-17T04:35:29.457Z,52.09
2023-03-17T04:37:56.346Z,52.51
2023-03-17T04:40:22.937Z,52.07
2023-03-17T04:42:49.500Z,52.71
2023-03-17T04:45:16.824Z,52.03
2023-03-17T04:47:46.014Z,52.63
2023-03-17T04:50:13.968Z,54.06
2023-03-17T04:52:41.098Z,53.70
2023-03-17T04:55:08.402Z,53.65
2023-03-17T04:57:36.099Z,53.78
2023-03-17T05:00:05.050Z,52.63
2023-03-17T05:02:31.726Z,54.13
2023-03-17T05:04:58.288Z,53.15
2023-03-17T05:07:24.815Z,52.36
2023-03-17T05:09:51.807Z,53.46
2023-03-17T05:12:18.358Z,52.59
2023-03-17T05:14:44.859Z,52.94
2023-03-17T05:17:11.539Z,53.61
2023-03-17T05:19:38.075Z,53.48
2023-03-17T05:22:04.961Z,52.98
2023-03-17T05:24:31.477Z,52.35
2023-03-17T05:26:58.173Z,53.20
2023-03-17T05:29:24.727Z,52.43
2023-03-17T05:31:51.285Z,52.48
2023-03-17T05:34:17.826Z,52.61
2023-03-17T05:36:44.759Z,52.96
2023-03-17T05:39:12.802Z,52.06
2023-03-17T05:41:40.972Z,52.14
2023-03-17T05:44:08.540Z,53.14
2023-03-17T05:46:35.197Z,53.61
2023-03-17T05:49:02.208Z,52.19
2023-03-17T05:51:28.810Z,52.73
2023-03-17T05:53:55.383Z,52.76
2023-03-17T05:56:21.996Z,53.00
2023-03-17T05:58:48.868Z,52.39
2023-03-17T06:01:15.475Z,53.06
2023-03-17T06:03:42.179Z,53.59
2023-03-17T06:06:09.279Z,52.67
2023-03-17T06:08:35.878Z,52.97
2023-03-17T06:11:02.518Z,52.65
2023-03-17T06:13:29.096Z,52.25
2023-03-17T06:15:57.429Z,52.57
2023-03-17T06:18:24.081Z,52.07
2023-03-17T06:20:50.736Z,52.22
2023-03-17T06:23:18.828Z,52.06
2023-03-17T06:25:45.381Z,52.34
2023-03-17T06:28:11.894Z,52.79
2023-03-17T06:30:43.137Z,52.73
2023-03-17T06:33:10.136Z,52.49
2023-03-17T06:35:37.244Z,52.63
2023-03-17T06:38:03.850Z,52.31
2023-03-17T06:40:32.146Z,52.39
2023-03-17T06:42:58.832Z,51.21
2023-03-17T06:45:26.004Z,51.54
2023-03-17T06:47:52.676Z,51.47
2023-03-17T06:50:19.421Z,50.89
2023-03-17T06:52:47.035Z,51.21
2023-03-17T06:55:13.814Z,50.57
2023-03-17T06:57:40.475Z,51.14
2023-03-17T07:00:08.023Z,51.18
2023-03-17T07:02:34.863Z,50.61
2023-03-17T07:05:01.472Z,50.16
2023-03-17T07:07:28.224Z,50.48
2023-03-17T07:09:54.816Z,50.19
2023-03-17T07:12:21.984Z,49.30
2023-03-17T07:14:48.506Z,49.60
2023-03-17T07:17:15.736Z,49.40
2023-03-17T07:19:42.470Z,48.81
2023-03-17T07:22:11.825Z,49.29
2023-03-17T07:24:38.454Z,48.68
2023-03-17T07:27:05.379Z,48.32
2023-03-17T07:29:33.792Z,48.75
2023-03-17T07:32:01.440Z,47.88
2023-03-17T07:34:28.900Z,46.95
2023-03-17T07:36:55.542Z,46.78
2023-03-17T07:39:22.330Z,47.17
2023-03-17T07:41:52.960Z,47.58
2023-03-17T07:44:19.791Z,46.65
2023-03-17T07:46:46.465Z,47.34
2023-03-17T07:49:13.312Z,47.06
2023-03-17T07:51:43.109Z,48.22
2023-03-17T07:54:15.069Z,48.24
2023-03-17T07:56:42.514Z,48.06
2023-03-17T07:59:10.871Z,47.85
2023-03-17T08:01:38.331Z,47.94
2023-03-17T08:04:08.389Z,48.08
2023-03-17T08:06:35.570Z,48.10
2023-03-17T08:09:02.590Z,48.13
2023-03-17T08:11:29.633Z,47.75
2023-03-17T08:13:56.282Z,48.17
2023-03-17T08:16:22.887Z,47.67
2023-03-17T08:18:49.494Z,47.96
2023-03-17T08:21:16.701Z,47.32
2023-03-17T08:23:43.553Z,46.57
2023-03-17T08:26:10.355Z,46.38
2023-03-17T08:28:37.485Z,45.86
2023-03-17T08:31:13.764Z,46.19
2023-03-17T08:33:42.345Z,46.15
2023-03-17T08:36:10.942Z,46.00
2023-03-17T08:38:38.811Z,45.85
2023-03-17T08:41:08.043Z,45.49
2023-03-17T08:43:37.344Z,44.95
2023-03-17T08:46:27.598Z,45.01
2023-03-17T08:48:56.390Z,43.49
2023-03-17T08:51:24.927Z,44.29
2023-03-17T08:53:53.272Z,45.36
2023-03-17T08:56:20.611Z,45.11
2023-03-17T08:58:48.317Z,44.89
2023-03-17T09:01:15.868Z,44.80
2023-03-17T09:03:43.185Z,45.04
2023-03-17T09:06:12.240Z,45.34
2023-03-17T09:08:41.230Z,44.79
2023-03-17T09:11:08.425Z,45.03
2023-03-17T09:13:35.989Z,44.59
2023-03-17T09:16:02.744Z,44.51
2023-03-17T09:18:31.305Z,44.44
2023-03-17T09:20:58.105Z,43.69
2023-03-17T09:23:24.962Z,43.76
2023-03-17T09:25:52.127Z,42.99
2023-03-17T09:28:18.972Z,43.23
2023-03-17T09:30:46.045Z,42.74
2023-03-17T09:33:14.119Z,43.27
2023-03-17T09:35:41.499Z,42.84
2023-03-17T09:38:09.118Z,41.98
2023-03-17T09:40:53.948Z,41.66
2023-03-17T09:43:38.762Z,41.53
2023-03-17T09:46:43.800Z,41.52
2023-03-17T09:49:17.606Z,40.16
2023-03-17T09:51:46.349Z,40.96
2023-03-17T09:54:24.038Z,40.03
2023-03-17T09:57:06.138Z,39.95
2023-03-17T09:59:37.072Z,40.91
2023-03-17T10:02:18.573Z,40.22
2023-03-17T10:04:46.208Z,39.67
2023-03-17T10:07:18.155Z,39.87
2023-03-17T10:10:13.666Z,39.01
2023-03-17T10:12:59.250Z,39.32
2023-03-17T10:15:36.045Z,38.97
2023-03-17T10:18:09.897Z,39.08
2023-03-17T10:20:44.555Z,38.72
2023-03-17T10:23:15.551Z,38.62
2023-03-17T10:25:42.795Z,38.22
2023-03-17T10:28:29.804Z,39.11
2023-03-17T10:31:12.579Z,38.38
2023-03-17T10:33:39.158Z,38.92
2023-03-17T10:36:15.733Z,39.28
2023-03-17T10:38:50.938Z,39.39
2023-03-17T10:41:18.436Z,39.07
2023-03-17T10:43:48.243Z,39.30
2023-03-17T10:46:24.525Z,39.99
2023-03-17T10:48:58.284Z,39.84
2023-03-17T10:51:36.944Z,38.61
2023-03-17T10:54:10.710Z,39.73
2023-03-17T10:56:41.995Z,39.40
2023-03-17T10:59:21.186Z,37.82
2023-03-17T11:01:53.074Z,37.71
2023-03-17T11:04:32.045Z,37.25
2023-03-17T11:07:01.543Z,37.63
2023-03-17T11:09:34.256Z,37.12
2023-03-17T11:12:25.594Z,37.87
2023-03-17T11:14:59.353Z,37.61
2023-03-17T11:17:58.151Z,38.32
2023-03-17T11:20:45.945Z,38.05
2023-03-17T11:23:30.540Z,37.75
2023-03-17T11:26:38.780Z,36.63
2023-03-17T11:29:17.788Z,35.92
2023-03-17T11:32:12.246Z,36.50
2023-03-17T11:35:14.053Z,35.34
2023-03-17T11:37:51.434Z,36.21
2023-03-17T11:40:29.568Z,35.27
2023-03-17T11:43:11.382Z,35.56
2023-03-17T11:45:52.889Z,36.12
2023-03-17T11:48:22.680Z,36.32
2023-03-17T11:51:12.000Z,35.69
2023-03-17T11:54:08.020Z,36.17
2023-03-17T11:56:56.262Z,36.12
2023-03-17T11:59:54.535Z,35.70
2023-03-17T12:02:39.446Z,35.93
2023-03-17T12:05:10.966Z,35.42
2023-03-17T12:07:47.702Z,36.01
2023-03-17T12:10:31.158Z,36.13
2023-03-17T12:13:07.306Z,35.83
2023-03-17T12:15:54.040Z,35.57
2023-03-17T12:18:38.715Z,35.28
2023-03-17T12:21:21.808Z,34.67
2023-03-17T12:23:50.991Z,35.94
2023-03-17T12:26:37.568Z,35.25
2023-03-17T12:29:39.766Z,34.69
2023-03-17T12:32:18.252Z,35.18
2023-03-17T12:34:58.215Z,35.21
2023-03-17T12:37:27.671Z,35.27
2023-03-17T12:40:00.812Z,34.29
2023-03-17T12:42:53.715Z,34.20
2023-03-17T12:45:44.657Z,34.18
2023-03-17T12:49:01.579Z,34.63
2023-03-17T12:51:33.932Z,35.21
2023-03-17T12:54:00.975Z,35.56
2023-03-17T12:56:31.077Z,35.66
2023-03-17T12:59:09.214Z,34.74
2023-03-17T13:01:54.397Z,33.64
2023-03-17T13:04:26.947Z,33.60
2023-03-17T13:07:06.211Z,34.81
2023-03-17T13:09:32.702Z,34.67
2023-03-17T13:12:01.302Z,34.98
2023-03-17T13:14:47.694Z,34.73
2023-03-17T13:17:17.578Z,34.69
2023-03-17T13:19:59.377Z,35.40
2023-03-17T13:22:36.732Z,34.66
2023-03-17T13:25:35.580Z,35.01
2023-03-17T13:28:24.842Z,34.44
2023-03-17T13:31:20.246Z,35.09
2023-03-17T13:33:53.524Z,34.86
2023-03-17T13:36:47.523Z,34.94
2023-03-17T13:39:56.525Z,34.48
2023-03-17T13:42:53.609Z,35.15
2023-03-17T13:45:37.441Z,34.66
2023-03-17T13:48:37.974Z,33.81
2023-03-17T13:51:23.950Z,34.07
2023-03-17T13:54:06.687Z,35.52
2023-03-17T13:56:42.047Z,35.12
2023-03-17T13:59:16.892Z,34.05
2023-03-17T14:01:49.331Z,34.16
2023-03-17T14:04:22.400Z,34.81
2023-03-17T14:06:53.519Z,34.28
2023-03-17T14:09:36.350Z,35.01
2023-03-17T14:12:26.313Z,35.01
2023-03-17T14:14:58.829Z,34.81
2023-03-17T14:17:30.282Z,35.30
2023-03-17T14:20:24.270Z,34.94
2023-03-17T14:23:03.188Z,34.46
2023-03-17T14:25:35.658Z,34.82
2023-03-17T14:28:06.136Z,34.86
2023-03-17T14:30:34.815Z,34.52
2023-03-17T14:33:06.456Z,35.27
2023-03-17T14:35:39.362Z,34.56
2023-03-17T14:38:31.387Z,34.91
2023-03-17T14:41:01.232Z,35.35
2023-03-17T14:43:27.832Z,35.32
2023-03-17T14:46:29.026Z,34.46
2023-03-17T14:49:16.052Z,34.50
2023-03-17T14:51:42.925Z,34.46
2023-03-17T14:54:20.632Z,34.66
2023-03-17T14:56:51.356Z,34.96
2023-03-17T14:59:30.026Z,33.92
2023-03-17T15:02:02.091Z,33.84
2023-03-17T15:04:33.957Z,33.84
2023-03-17T15:07:05.465Z,33.73
2023-03-17T15:09:41.841Z,33.79
2023-03-17T15:12:26.272Z,35.24
2023-03-17T15:15:04.812Z,34.88
2023-03-17T15:17:35.554Z,35.47
2023-03-17T15:20:13.728Z,34.95
2023-03-17T15:22:48.480Z,34.96
2023-03-17T15:25:18.104Z,35.77
2023-03-17T15:27:45.286Z,36.67
2023-03-17T15:30:13.058Z,36.78
2023-03-17T15:32:39.817Z,37.78
2023-03-17T15:35:07.953Z,37.31
2023-03-17T15:37:35.024Z,37.72
2023-03-17T15:40:03.380Z,37.89
2023-03-17T15:42:32.736Z,37.83
2023-03-17T15:45:01.930Z,38.30
2023-03-17T15:47:31.211Z,37.93
2023-03-17T15:50:01.762Z,38.33
2023-03-17T15:52:28.996Z,39.10
2023-03-17T15:54:57.889Z,38.85
2023-03-17T15:57:25.452Z,39.32
2023-03-17T15:59:52.171Z,39.41
2023-03-17T16:02:33.449Z,39.77
2023-03-17T16:05:05.119Z,39.85
2023-03-17T16:07:31.732Z,39.63
2023-03-17T16:09:58.238Z,40.16
2023-03-17T16:12:24.980Z,40.22
2023-03-17T16:14:51.568Z,40.24
2023-03-17T16:17:29.108Z,41.19
2023-03-17T16:19:56.753Z,40.55
2023-03-17T16:22:43.603Z,41.00
2023-03-17T16:25:32.379Z,40.71
2023-03-17T16:28:01.645Z,40.96
2023-03-17T16:30:33.789Z,41.62
2023-03-17T16:33:03.616Z,41.78
2023-03-17T16:35:30.367Z,41.98
2023-03-17T16:37:57.069Z,41.95
2023-03-17T16:40:33.515Z,42.33
2023-03-17T16:43:00.462Z,42.23
2023-03-17T16:45:32.975Z,42.21
2023-03-17T16:48:02.258Z,42.02
2023-03-17T16:50:30.282Z,41.96
2023-03-17T16:52:57.728Z,42.86
2023-03-17T16:55:27.077Z,42.51
2023-03-17T16:57:55.486Z,43.14
2023-03-17T17:00:28.538Z,42.91
2023-03-17T17:02:55.727Z,43.27
2023-03-17T17:05:24.937Z,43.79
2023-03-17T17:07:55.051Z,43.21
2023-03-17T17:10:24.561Z,43.61
2023-03-17T17:12:52.014Z,44.26
2023-03-17T17:15:19.940Z,43.74
2023-03-17T17:17:56.000Z,44.72
2023-03-17T17:20:25.472Z,44.43
2023-03-17T17:22:52.022Z,45.12
2023-03-17T17:25:18.739Z,44.40
2023-03-17T17:27:46.666Z,45.40
2023-03-17T17:30:16.543Z,45.29
2023-03-17T17:32:43.383Z,44.99
2023-03-17T17:35:09.997Z,45.84
2023-03-17T17:37:36.615Z,46.94
2023-03-17T17:40:03.889Z,46.67
2023-03-17T17:42:30.444Z,46.38
2023-03-17T17:44:57.136Z,47.07
2023-03-17T17:47:23.834Z,47.68
2023-03-17T17:49:50.511Z,47.54
2023-03-17T17:52:18.443Z,47.77
2023-03-17T17:54:45.345Z,47.64
2023-03-17T17:57:12.938Z,48.58
2023-03-17T17:59:39.748Z,48.73
2023-03-17T18:02:06.708Z,48.02
2023-03-17T18:04:33.493Z,49.14
2023-03-17T18:07:00.027Z,48.56
2023-03-17T18:09:26.618Z,48.89
2023-03-17T18:11:53.211Z,49.32
2023-03-17T18:14:19.747Z,49.41
2023-03-17T18:16:47.007Z,49.16
2023-03-17T18:19:14.118Z,48.33
2023-03-17T18:21:40.883Z,49.12
2023-03-17T18:24:07.964Z,49.23
2023-03-17T18:26:35.090Z,48.65
2023-03-17T18:29:01.983Z,49.16
2023-03-17T18:31:37.104Z,48.88
2023-03-17T18:34:08.633Z,49.04
2023-03-17T18:36:35.697Z,49.53
2023-03-17T18:39:02.286Z,48.94
2023-03-17T18:41:28.849Z,48.36
2023-03-17T18:43:55.425Z,47.78
2023-03-17T18:46:22.775Z,48.59
2023-03-17T18:48:49.359Z,47.92
2023-03-17T18:51:16.188Z,47.86
2023-03-17T18:53:42.909Z,48.09
2023-03-17T18:56:09.835Z,47.40
2023-03-17T18:58:36.606Z,47.85
2023-03-17T19:01:03.636Z,47.51
2023-03-17T19:03:32.199Z,46.98
2023-03-17T19:06:11.307Z,48.01
2023-03-17T19:08:37.947Z,47.38
2023-03-17T19:11:09.321Z,47.16
2023-03-17T19:13:37.408Z,47.71
2023-03-17T19:16:07.943Z,46.90
2023-03-17T19:18:35.811Z,47.07
2023-03-17T19:21:02.641Z,46.56
2023-03-17T19:23:29.625Z,47.22
2023-03-17T19:25:56.142Z,47.14
2023-03-17T19:28:22.683Z,47.58
2023-03-17T19:30:49.241Z,47.16
2023-03-17T19:33:16.249Z,46.72
2023-03-17T19:35:48.952Z,46.83
2023-03-17T19:38:15.495Z,46.42
2023-03-17T19:40:42.048Z,46.60
2023-03-17T19:43:08.539Z,47.26
2023-03-17T19:45:35.391Z,46.35
2023-03-17T19:48:01.916Z,47.31
2023-03-17T19:50:28.686Z,47.48
2023-03-17T19:52:55.203Z,47.02
2023-03-17T19:55:24.497Z,47.40
2023-03-17T19:57:51.844Z,47.48
2023-03-17T20:00:18.541Z,46.98
2023-03-17T20:02:45.938Z,47.65
2023-03-17T20:05:14.328Z,47.47
2023-03-17T20:07:40.972Z,48.13
2023-03-17T20:10:09.345Z,47.83
2023-03-17T20:12:38.124Z,47.85
2023-03-17T20:15:09.269Z,47.56
2023-03-17T20:17:36.746Z,47.69
2023-03-17T20:20:03.563Z,47.46
2023-03-17T20:22:30.170Z,47.59
2023-03-17T20:24:56.898Z,47.53
2023-03-17T20:27:24.610Z,47.04
2023-03-17T20:29:51.377Z,47.08
2023-03-17T20:32:18.125Z,47.62
2023-03-17T20:34:45.167Z,47.18
2023-03-17T20:37:14.109Z,47.42
2023-03-17T20:39:41.214Z,47.58
2023-03-17T20:42:14.312Z,47.30
2023-03-17T20:44:44.229Z,47.76
2023-03-17T20:47:11.421Z,47.11
2023-03-17T20:49:38.016Z,46.66
2023-03-17T20:52:06.281Z,46.28
2023-03-17T20:54:33.388Z,46.91
2023-03-17T20:57:00.998Z,46.51
2023-03-17T20:59:27.598Z,47.31
2023-03-17T21:01:54.265Z,46.43
2023-03-17T21:04:27.089Z,46.26
2023-03-17T21:06:53.728Z,46.80
2023-03-17T21:09:20.317Z,46.79
2023-03-17T21:11:49.012Z,46.49
2023-03-17T21:14:16.478Z,46.07
2023-03-17T21:16:45.187Z,45.91
2023-03-17T21:19:15.526Z,45.90
2023-03-17T21:21:42.171Z,45.89
2023-03-17T21:24:23.400Z,45.62
2023-03-17T21:26:49.945Z,45.63
2023-03-17T21:29:16.507Z,44.90
2023-03-17T21:31:43.088Z,45.29
2023-03-17T21:34:09.688Z,45.38
2023-03-17T21:36:36.345Z,44.93
2023-03-17T21:39:03.049Z,44.87
2023-03-17T21:41:35.755Z,44.86
2023-03-17T21:44:03.290Z,44.82
2023-03-17T21:46:31.718Z,44.69
2023-03-17T21:48:58.778Z,44.72
2023-03-17T21:51:26.125Z,45.07
2023-03-17T21:53:53.060Z,45.23
2023-03-17T21:56:20.574Z,45.30
2023-03-17T21:58:48.893Z,44.86
2023-03-17T22:01:20.365Z,45.05
2023-03-17T22:03:47.298Z,45.12
2023-03-17T22:06:16.560Z,44.99
2023-03-17T22:08:43.952Z,44.57
2023-03-17T22:11:13.623Z,44.71
2023-03-17T22:13:41.169Z,44.21
2023-03-17T22:16:09.186Z,44.87
2023-03-17T22:18:36.654Z,44.29
2023-03-17T22:21:04.879Z,44.67
2023-03-17T22:23:31.494Z,44.52
2023-03-17T22:25:58.084Z,44.67
2023-03-17T22:28:25.224Z,44.79
2023-03-17T22:30:51.774Z,43.93
2023-03-17T22:33:18.304Z,44.88
2023-03-17T22:35:44.872Z,44.44
2023-03-17T22:38:13.010Z,45.01
2023-03-17T22:40:39.850Z,44.91
2023-03-17T22:43:07.362Z,44.22
2023-03-17T22:45:34.015Z,44.02
2023-03-17T22:48:01.232Z,44.29
2023-03-17T22:50:27.897Z,43.99
2023-03-17T22:52:54.430Z,44.05
2023-03-17T22:55:21.008Z,44.63
2023-03-17T22:57:47.862Z,44.70
2023-03-17T23:00:17.171Z,44.87
2023-03-17T23:02:45.183Z,44.41
2023-03-17T23:05:13.388Z,44.57
2023-03-17T23:07:50.384Z,44.35
2023-03-17T23:10:22.062Z,44.53
2023-03-17T23:12:49.598Z,44.08
2023-03-17T23:15:17.950Z,44.34
2023-03-17T23:17:44.933Z,44.68
2023-03-17T23:20:12.244Z,44.74
2023-03-17T23:22:38.763Z,44.49
2023-03-17T23:25:06.237Z,45.00
2023-03-17T23:27:33.960Z,44.81
2023-03-17T23:30:00.564Z,44.83
2023-03-17T23:32:27.434Z,44.83
2023-03-17T23:34:53.986Z,44.27
2023-03-17T23:37:20.549Z,44.81
2023-03-17T23:39:48.442Z,44.45
2023-03-17T23:42:16.962Z,44.89
2023-03-17T23:44:45.145Z,44.93
2023-03-17T23:47:11.969Z,45.54
2023-03-17T23:49:39.159Z,45.45
2023-03-17T23:52:05.885Z,45.21
2023-03-17T23:54:33.770Z,45.83
2023-03-17T23:57:01.001Z,46.10
2023-03-17T23:59:28.499Z,45.36
